sensor_id;sensor_type;location;lat;lon;timestamp;temperature;humidity
3690;DHT22;1861;50.240;8.596;2022-10-23T00:01:13;14.80;99.90
3690;DHT22;1861;50.240;8.596;2022-10-23T00:03:42;14.80;99.90
3690;DHT22;1861;50.240;8.596;2022-10-23T00:06:11;14.80;99.90
3690;DHT22;1861;50.240;8.596;2022-10-23T00:08:40;14.70;99.90
3690;DHT22;1861;50.240;8.596;2022-10-23T00:11:11;14.70;99.90
3690;DHT22;1861;50.240;8.596;2022-10-23T00:13:40;14.70;99.90
3690;DHT22;1861;50.240;8.596;2022-10-23T00:16:08;14.70;99.90
3690;DHT22;1861;50.240;8.596;2022-10-23T00:18:37;14.70;99.90
3690;DHT22;1861;50.240;8.596;2022-10-23T00:21:06;14.80;99.90
3690;DHT22;1861;50.240;8.596;2022-10-23T00:23:35;14.70;99.90
3690;DHT22;1861;50.240;8.596;2022-10-23T00:26:04;14.70;99.90
3690;DHT22;1861;50.240;8.596;2022-10-23T00:28:34;14.80;99.90
3690;DHT22;1861;50.240;8.596;2022-10-23T00:31:03;14.80;99.90
3690;DHT22;1861;50.240;8.596;2022-10-23T00:33:32;14.80;99.90
3690;DHT22;1861;50.240;8.596;2022-10-23T00:36:02;14.70;99.90
3690;DHT22;1861;50.240;8.596;2022-10-23T00:38:30;14.70;99.90
3690;DHT22;1861;50.240;8.596;2022-10-23T00:40:58;14.70;99.90
3690;DHT22;1861;50.240;8.596;2022-10-23T00:43:28;14.60;99.90
3690;DHT22;1861;50.240;8.596;2022-10-23T00:45:58;14.50;99.90
3690;DHT22;1861;50.240;8.596;2022-10-23T00:48:27;14.60;99.90
3690;DHT22;1861;50.240;8.596;2022-10-23T00:50:56;14.70;99.90
3690;DHT22;1861;50.240;8.596;2022-10-23T00:53:24;14.70;99.90
3690;DHT22;1861;50.240;8.596;2022-10-23T00:55:52;14.60;99.90
3690;DHT22;1861;50.240;8.596;2022-10-23T00:58:23;14.60;99.90
3690;DHT22;1861;50.240;8.596;2022-10-23T01:00:54;14.60;99.90
3690;DHT22;1861;50.240;8.596;2022-10-23T01:03:25;14.50;99.90
3690;DHT22;1861;50.240;8.596;2022-10-23T01:05:59;14.50;99.90
3690;DHT22;1861;50.240;8.596;2022-10-23T01:08:34;14.50;99.90
3690;DHT22;1861;50.240;8.596;2022-10-23T01:11:09;14.60;99.90
3690;DHT22;1861;50.240;8.596;2022-10-23T01:13:43;14.50;99.90
3690;DHT22;1861;50.240;8.596;2022-10-23T01:16:17;14.50;99.90
3690;DHT22;1861;50.240;8.596;2022-10-23T01:18:55;14.50;99.90
3690;DHT22;1861;50.240;8.596;2022-10-23T01:21:30;14.50;99.90
3690;DHT22;1861;50.240;8.596;2022-10-23T01:24:17;14.60;99.90
3690;DHT22;1861;50.240;8.596;2022-10-23T01:30:03;14.40;99.90
3690;DHT22;1861;50.240;8.596;2022-10-23T01:32:43;14.40;99.90
3690;DHT22;1861;50.240;8.596;2022-10-23T01:35:17;14.40;99.90
3690;DHT22;1861;50.240;8.596;2022-10-23T01:37:56;14.50;99.90
3690;DHT22;1861;50.240;8.596;2022-10-23T01:40:31;14.50;99.90
3690;DHT22;1861;50.240;8.596;2022-10-23T01:43:04;14.50;99.90
3690;DHT22;1861;50.240;8.596;2022-10-23T01:45:39;14.50;99.90
3690;DHT22;1861;50.240;8.596;2022-10-23T01:48:15;14.40;99.90
3690;DHT22;1861;50.240;8.596;2022-10-23T01:50:45;14.40;99.90
3690;DHT22;1861;50.240;8.596;2022-10-23T01:53:14;14.30;99.90
3690;DHT22;1861;50.240;8.596;2022-10-23T01:55:42;14.30;99.90
3690;DHT22;1861;50.240;8.596;2022-10-23T01:58:17;14.30;99.90
3690;DHT22;1861;50.240;8.596;2022-10-23T02:00:49;14.30;99.90
3690;DHT22;1861;50.240;8.596;2022-10-23T02:03:19;14.40;99.90
3690;DHT22;1861;50.240;8.596;2022-10-23T02:05:48;14.30;99.90
3690;DHT22;1861;50.240;8.596;2022-10-23T02:08:16;14.30;99.90
3690;DHT22;1861;50.240;8.596;2022-10-23T02:10:49;14.40;99.90
3690;DHT22;1861;50.240;8.596;2022-10-23T02:13:24;14.40;99.90
3690;DHT22;1861;50.240;8.596;2022-10-23T02:15:59;14.50;99.90
3690;DHT22;1861;50.240;8.596;2022-10-23T02:18:34;14.40;99.90
3690;DHT22;1861;50.240;8.596;2022-10-23T02:21:06;14.40;99.90
3690;DHT22;1861;50.240;8.596;2022-10-23T02:23:39;14.40;99.90
3690;DHT22;1861;50.240;8.596;2022-10-23T02:26:15;14.40;99.90
3690;DHT22;1861;50.240;8.596;2022-10-23T02:28:50;14.40;99.90
3690;DHT22;1861;50.240;8.596;2022-10-23T02:31:21;14.40;99.90
3690;DHT22;1861;50.240;8.596;2022-10-23T02:33:50;14.40;99.90
3690;DHT22;1861;50.240;8.596;2022-10-23T02:36:18;14.40;99.90
3690;DHT22;1861;50.240;8.596;2022-10-23T02:38:47;14.40;99.90
3690;DHT22;1861;50.240;8.596;2022-10-23T02:41:22;14.40;99.90
3690;DHT22;1861;50.240;8.596;2022-10-23T02:44:06;14.40;99.90
3690;DHT22;1861;50.240;8.596;2022-10-23T02:46:47;14.40;99.90
3690;DHT22;1861;50.240;8.596;2022-10-23T02:49:23;14.40;99.90
3690;DHT22;1861;50.240;8.596;2022-10-23T02:51:56;14.40;99.90
3690;DHT22;1861;50.240;8.596;2022-10-23T02:54:42;14.40;99.90
3690;DHT22;1861;50.240;8.596;2022-10-23T02:57:18;14.40;99.90
3690;DHT22;1861;50.240;8.596;2022-10-23T02:59:56;14.30;99.90
3690;DHT22;1861;50.240;8.596;2022-10-23T03:02:33;14.30;99.90
3690;DHT22;1861;50.240;8.596;2022-10-23T03:05:06;14.30;99.90
3690;DHT22;1861;50.240;8.596;2022-10-23T03:07:36;14.30;99.90
3690;DHT22;1861;50.240;8.596;2022-10-23T03:10:09;14.30;99.90
3690;DHT22;1861;50.240;8.596;2022-10-23T03:12:37;14.30;99.90
3690;DHT22;1861;50.240;8.596;2022-10-23T03:15:09;14.30;99.90
3690;DHT22;1861;50.240;8.596;2022-10-23T03:17:39;14.30;99.90
3690;DHT22;1861;50.240;8.596;2022-10-23T03:20:09;14.30;99.90
3690;DHT22;1861;50.240;8.596;2022-10-23T03:22:38;14.40;99.90
3690;DHT22;1861;50.240;8.596;2022-10-23T03:25:07;14.40;99.90
3690;DHT22;1861;50.240;8.596;2022-10-23T03:27:36;14.30;99.90
3690;DHT22;1861;50.240;8.596;2022-10-23T03:30:08;14.30;99.90
3690;DHT22;1861;50.240;8.596;2022-10-23T03:32:39;14.30;99.90
3690;DHT22;1861;50.240;8.596;2022-10-23T03:35:08;14.20;99.90
3690;DHT22;1861;50.240;8.596;2022-10-23T03:37:37;14.20;99.90
3690;DHT22;1861;50.240;8.596;2022-10-23T03:40:06;14.30;99.90
3690;DHT22;1861;50.240;8.596;2022-10-23T03:42:34;14.30;99.90
3690;DHT22;1861;50.240;8.596;2022-10-23T03:45:02;14.40;99.90
3690;DHT22;1861;50.240;8.596;2022-10-23T03:47:31;14.40;99.90
3690;DHT22;1861;50.240;8.596;2022-10-23T03:50:03;14.40;99.90
3690;DHT22;1861;50.240;8.596;2022-10-23T03:52:32;14.30;99.90
3690;DHT22;1861;50.240;8.596;2022-10-23T03:55:03;14.30;99.90
3690;DHT22;1861;50.240;8.596;2022-10-23T03:57:35;14.30;99.90
3690;DHT22;1861;50.240;8.596;2022-10-23T04:00:05;14.40;99.90
3690;DHT22;1861;50.240;8.596;2022-10-23T04:02:42;14.30;99.90
3690;DHT22;1861;50.240;8.596;2022-10-23T04:05:12;14.30;99.90
3690;DHT22;1861;50.240;8.596;2022-10-23T04:07:49;14.30;99.90
3690;DHT22;1861;50.240;8.596;2022-10-23T04:10:18;14.30;99.90
3690;DHT22;1861;50.240;8.596;2022-10-23T04:12:46;14.20;99.90
3690;DHT22;1861;50.240;8.596;2022-10-23T04:15:15;14.20;99.90
3690;DHT22;1861;50.240;8.596;2022-10-23T04:17:45;14.30;99.90
3690;DHT22;1861;50.240;8.596;2022-10-23T04:20:14;14.30;99.90
3690;DHT22;1861;50.240;8.596;2022-10-23T04:22:42;14.20;99.90
3690;DHT22;1861;50.240;8.596;2022-10-23T04:25:12;14.20;99.90
3690;DHT22;1861;50.240;8.596;2022-10-23T04:27:40;14.20;99.90
3690;DHT22;1861;50.240;8.596;2022-10-23T04:30:10;14.30;99.90
3690;DHT22;1861;50.240;8.596;2022-10-23T04:32:38;14.30;99.90
3690;DHT22;1861;50.240;8.596;2022-10-23T04:35:07;14.30;99.90
3690;DHT22;1861;50.240;8.596;2022-10-23T04:37:36;14.30;99.90
3690;DHT22;1861;50.240;8.596;2022-10-23T04:40:06;14.30;99.90
3690;DHT22;1861;50.240;8.596;2022-10-23T04:42:36;14.40;99.90
3690;DHT22;1861;50.240;8.596;2022-10-23T04:45:06;14.30;99.90
3690;DHT22;1861;50.240;8.596;2022-10-23T04:47:34;14.30;99.90
3690;DHT22;1861;50.240;8.596;2022-10-23T04:50:04;14.30;99.90
3690;DHT22;1861;50.240;8.596;2022-10-23T04:52:54;14.20;99.90
3690;DHT22;1861;50.240;8.596;2022-10-23T04:55:47;14.20;99.90
3690;DHT22;1861;50.240;8.596;2022-10-23T04:58:24;14.30;99.90
3690;DHT22;1861;50.240;8.596;2022-10-23T05:00:56;14.20;99.90
3690;DHT22;1861;50.240;8.596;2022-10-23T05:03:26;14.20;99.90
3690;DHT22;1861;50.240;8.596;2022-10-23T05:05:55;14.20;99.90
3690;DHT22;1861;50.240;8.596;2022-10-23T05:08:43;14.20;99.90
3690;DHT22;1861;50.240;8.596;2022-10-23T05:11:29;14.20;99.90
3690;DHT22;1861;50.240;8.596;2022-10-23T05:13:58;14.30;99.90
3690;DHT22;1861;50.240;8.596;2022-10-23T05:16:33;14.30;99.90
3690;DHT22;1861;50.240;8.596;2022-10-23T05:19:04;14.20;99.90
3690;DHT22;1861;50.240;8.596;2022-10-23T05:21:33;14.10;99.90
3690;DHT22;1861;50.240;8.596;2022-10-23T05:24:07;14.10;99.90
3690;DHT22;1861;50.240;8.596;2022-10-23T05:26:35;14.10;99.90
3690;DHT22;1861;50.240;8.596;2022-10-23T05:29:06;14.10;99.90
3690;DHT22;1861;50.240;8.596;2022-10-23T05:31:34;14.10;99.90
3690;DHT22;1861;50.240;8.596;2022-10-23T05:34:12;14.10;99.90
3690;DHT22;1861;50.240;8.596;2022-10-23T05:36:43;14.20;99.90
3690;DHT22;1861;50.240;8.596;2022-10-23T05:39:15;14.10;99.90
3690;DHT22;1861;50.240;8.596;2022-10-23T05:41:44;14.10;99.90
3690;DHT22;1861;50.240;8.596;2022-10-23T05:44:18;14.10;99.90
3690;DHT22;1861;50.240;8.596;2022-10-23T05:46:52;14.10;99.90
3690;DHT22;1861;50.240;8.596;2022-10-23T05:49:38;14.10;99.90
3690;DHT22;1861;50.240;8.596;2022-10-23T05:52:25;14.10;99.90
3690;DHT22;1861;50.240;8.596;2022-10-23T05:55:18;14.20;99.90
3690;DHT22;1861;50.240;8.596;2022-10-23T05:58:00;14.10;99.90
3690;DHT22;1861;50.240;8.596;2022-10-23T06:00:54;14.10;99.90
3690;DHT22;1861;50.240;8.596;2022-10-23T06:03:45;14.10;99.90
3690;DHT22;1861;50.240;8.596;2022-10-23T06:06:13;14.10;99.90
3690;DHT22;1861;50.240;8.596;2022-10-23T06:08:45;14.10;99.90
3690;DHT22;1861;50.240;8.596;2022-10-23T06:11:14;14.10;99.90
3690;DHT22;1861;50.240;8.596;2022-10-23T06:13:51;14.20;99.90
3690;DHT22;1861;50.240;8.596;2022-10-23T06:16:21;14.20;99.90
3690;DHT22;1861;50.240;8.596;2022-10-23T06:18:50;14.10;99.90
3690;DHT22;1861;50.240;8.596;2022-10-23T06:21:18;14.10;99.90
3690;DHT22;1861;50.240;8.596;2022-10-23T06:23:49;14.10;99.90
3690;DHT22;1861;50.240;8.596;2022-10-23T06:26:37;14.00;99.90
3690;DHT22;1861;50.240;8.596;2022-10-23T06:29:08;14.10;99.90
3690;DHT22;1861;50.240;8.596;2022-10-23T06:31:38;14.10;99.90
3690;DHT22;1861;50.240;8.596;2022-10-23T06:34:10;14.10;99.90
3690;DHT22;1861;50.240;8.596;2022-10-23T06:36:38;14.20;99.90
3690;DHT22;1861;50.240;8.596;2022-10-23T06:39:21;14.10;99.90
3690;DHT22;1861;50.240;8.596;2022-10-23T06:42:07;14.10;99.90
3690;DHT22;1861;50.240;8.596;2022-10-23T06:44:56;14.10;99.90
3690;DHT22;1861;50.240;8.596;2022-10-23T06:47:48;14.10;99.90
3690;DHT22;1861;50.240;8.596;2022-10-23T06:50:35;14.10;99.90
3690;DHT22;1861;50.240;8.596;2022-10-23T06:53:09;14.10;99.90
3690;DHT22;1861;50.240;8.596;2022-10-23T06:55:43;14.10;99.90
3690;DHT22;1861;50.240;8.596;2022-10-23T06:58:14;14.20;99.90
3690;DHT22;1861;50.240;8.596;2022-10-23T07:00:59;14.20;99.90
3690;DHT22;1861;50.240;8.596;2022-10-23T07:03:28;14.30;99.90
3690;DHT22;1861;50.240;8.596;2022-10-23T07:05:59;14.30;99.90
3690;DHT22;1861;50.240;8.596;2022-10-23T07:08:28;14.20;99.90
3690;DHT22;1861;50.240;8.596;2022-10-23T07:10:56;14.20;99.90
3690;DHT22;1861;50.240;8.596;2022-10-23T07:13:26;14.20;99.90
3690;DHT22;1861;50.240;8.596;2022-10-23T07:16:10;14.30;99.90
3690;DHT22;1861;50.240;8.596;2022-10-23T07:18:39;14.30;99.90
3690;DHT22;1861;50.240;8.596;2022-10-23T07:21:39;14.30;99.90
3690;DHT22;1861;50.240;8.596;2022-10-23T07:24:27;14.40;99.90
3690;DHT22;1861;50.240;8.596;2022-10-23T07:27:00;14.40;99.90
3690;DHT22;1861;50.240;8.596;2022-10-23T07:29:30;14.40;99.90
3690;DHT22;1861;50.240;8.596;2022-10-23T07:31:59;14.40;99.90
3690;DHT22;1861;50.240;8.596;2022-10-23T07:34:46;14.40;99.90
3690;DHT22;1861;50.240;8.596;2022-10-23T07:37:23;14.50;99.90
3690;DHT22;1861;50.240;8.596;2022-10-23T07:39:51;14.50;99.90
3690;DHT22;1861;50.240;8.596;2022-10-23T07:42:19;14.60;99.90
3690;DHT22;1861;50.240;8.596;2022-10-23T07:44:49;14.60;99.90
3690;DHT22;1861;50.240;8.596;2022-10-23T07:47:17;14.60;99.90
3690;DHT22;1861;50.240;8.596;2022-10-23T07:49:49;14.70;99.90
3690;DHT22;1861;50.240;8.596;2022-10-23T07:52:19;14.70;99.90
3690;DHT22;1861;50.240;8.596;2022-10-23T07:55:09;14.70;99.90
3690;DHT22;1861;50.240;8.596;2022-10-23T07:57:46;14.80;99.90
3690;DHT22;1861;50.240;8.596;2022-10-23T08:00:45;14.90;99.90
3690;DHT22;1861;50.240;8.596;2022-10-23T08:03:26;15.00;99.90
3690;DHT22;1861;50.240;8.596;2022-10-23T08:05:55;15.10;99.90
3690;DHT22;1861;50.240;8.596;2022-10-23T08:08:24;15.10;99.90
3690;DHT22;1861;50.240;8.596;2022-10-23T08:10:58;15.20;99.90
3690;DHT22;1861;50.240;8.596;2022-10-23T08:13:32;15.20;99.90
3690;DHT22;1861;50.240;8.596;2022-10-23T08:16:05;15.20;99.90
3690;DHT22;1861;50.240;8.596;2022-10-23T08:19:06;15.30;99.90
3690;DHT22;1861;50.240;8.596;2022-10-23T08:21:37;15.40;99.90
3690;DHT22;1861;50.240;8.596;2022-10-23T08:24:08;15.40;99.90
3690;DHT22;1861;50.240;8.596;2022-10-23T08:26:40;15.50;99.90
3690;DHT22;1861;50.240;8.596;2022-10-23T08:29:09;15.50;99.90
3690;DHT22;1861;50.240;8.596;2022-10-23T08:31:38;15.50;99.90
3690;DHT22;1861;50.240;8.596;2022-10-23T08:34:16;15.50;99.90
3690;DHT22;1861;50.240;8.596;2022-10-23T08:36:49;15.60;99.90
3690;DHT22;1861;50.240;8.596;2022-10-23T08:39:17;15.60;99.90
3690;DHT22;1861;50.240;8.596;2022-10-23T08:42:01;15.70;99.90
3690;DHT22;1861;50.240;8.596;2022-10-23T08:44:31;15.70;99.90
3690;DHT22;1861;50.240;8.596;2022-10-23T08:47:05;15.70;99.90
3690;DHT22;1861;50.240;8.596;2022-10-23T08:49:56;15.70;99.90
3690;DHT22;1861;50.240;8.596;2022-10-23T08:52:30;15.70;99.90
3690;DHT22;1861;50.240;8.596;2022-10-23T08:55:08;15.80;99.90
3690;DHT22;1861;50.240;8.596;2022-10-23T08:57:44;15.80;99.90
3690;DHT22;1861;50.240;8.596;2022-10-23T09:00:16;15.80;99.90
3690;DHT22;1861;50.240;8.596;2022-10-23T09:02:48;15.80;99.90
3690;DHT22;1861;50.240;8.596;2022-10-23T09:05:20;15.80;99.90
3690;DHT22;1861;50.240;8.596;2022-10-23T09:08:11;15.80;99.90
3690;DHT22;1861;50.240;8.596;2022-10-23T09:10:55;15.80;99.90
3690;DHT22;1861;50.240;8.596;2022-10-23T09:13:42;15.80;99.90
3690;DHT22;1861;50.240;8.596;2022-10-23T09:16:15;15.80;99.90
3690;DHT22;1861;50.240;8.596;2022-10-23T09:18:47;15.80;99.90
3690;DHT22;1861;50.240;8.596;2022-10-23T09:21:16;15.80;99.90
3690;DHT22;1861;50.240;8.596;2022-10-23T09:23:44;15.80;99.90
3690;DHT22;1861;50.240;8.596;2022-10-23T09:26:14;15.70;99.90
3690;DHT22;1861;50.240;8.596;2022-10-23T09:28:46;15.70;99.90
3690;DHT22;1861;50.240;8.596;2022-10-23T09:31:15;15.70;99.90
3690;DHT22;1861;50.240;8.596;2022-10-23T09:33:54;15.70;99.90
3690;DHT22;1861;50.240;8.596;2022-10-23T09:36:24;15.70;99.90
3690;DHT22;1861;50.240;8.596;2022-10-23T09:38:57;15.70;99.90
3690;DHT22;1861;50.240;8.596;2022-10-23T09:41:28;15.70;99.90
3690;DHT22;1861;50.240;8.596;2022-10-23T09:44:05;15.70;99.90
3690;DHT22;1861;50.240;8.596;2022-10-23T09:46:38;15.70;99.90
3690;DHT22;1861;50.240;8.596;2022-10-23T09:49:16;15.70;99.90
3690;DHT22;1861;50.240;8.596;2022-10-23T09:51:55;15.70;99.90
3690;DHT22;1861;50.240;8.596;2022-10-23T09:54:26;15.80;99.90
3690;DHT22;1861;50.240;8.596;2022-10-23T09:56:58;15.80;99.90
3690;DHT22;1861;50.240;8.596;2022-10-23T09:59:30;15.80;99.90
3690;DHT22;1861;50.240;8.596;2022-10-23T10:02:00;15.80;99.90
3690;DHT22;1861;50.240;8.596;2022-10-23T10:04:52;15.80;99.90
3690;DHT22;1861;50.240;8.596;2022-10-23T10:07:21;15.80;99.90
3690;DHT22;1861;50.240;8.596;2022-10-23T10:09:50;15.80;99.90
3690;DHT22;1861;50.240;8.596;2022-10-23T10:12:38;15.80;99.90
3690;DHT22;1861;50.240;8.596;2022-10-23T10:15:19;15.80;99.90
3690;DHT22;1861;50.240;8.596;2022-10-23T10:17:56;15.80;99.90
3690;DHT22;1861;50.240;8.596;2022-10-23T10:20:43;15.80;99.90
3690;DHT22;1861;50.240;8.596;2022-10-23T10:23:17;15.90;99.90
3690;DHT22;1861;50.240;8.596;2022-10-23T10:25:55;15.90;99.90
3690;DHT22;1861;50.240;8.596;2022-10-23T10:28:37;15.90;99.90
3690;DHT22;1861;50.240;8.596;2022-10-23T10:31:14;15.90;99.90
3690;DHT22;1861;50.240;8.596;2022-10-23T10:33:50;16.00;99.90
3690;DHT22;1861;50.240;8.596;2022-10-23T10:36:34;16.00;99.90
3690;DHT22;1861;50.240;8.596;2022-10-23T10:39:10;15.90;99.90
3690;DHT22;1861;50.240;8.596;2022-10-23T10:41:59;15.90;99.90
3690;DHT22;1861;50.240;8.596;2022-10-23T10:44:47;15.90;99.90
3690;DHT22;1861;50.240;8.596;2022-10-23T10:47:21;16.00;99.90
3690;DHT22;1861;50.240;8.596;2022-10-23T10:49:58;15.90;99.90
3690;DHT22;1861;50.240;8.596;2022-10-23T10:52:44;16.00;99.90
3690;DHT22;1861;50.240;8.596;2022-10-23T10:55:18;16.00;99.90
3690;DHT22;1861;50.240;8.596;2022-10-23T10:57:51;16.00;99.90
3690;DHT22;1861;50.240;8.596;2022-10-23T11:00:27;16.00;99.90
3690;DHT22;1861;50.240;8.596;2022-10-23T11:02:59;16.00;99.90
3690;DHT22;1861;50.240;8.596;2022-10-23T11:05:30;16.00;99.90
3690;DHT22;1861;50.240;8.596;2022-10-23T11:08:06;16.00;99.90
3690;DHT22;1861;50.240;8.596;2022-10-23T11:10:41;16.00;99.90
3690;DHT22;1861;50.240;8.596;2022-10-23T11:13:22;15.90;99.90
3690;DHT22;1861;50.240;8.596;2022-10-23T11:15:54;15.90;99.90
3690;DHT22;1861;50.240;8.596;2022-10-23T11:18:27;15.90;99.90
3690;DHT22;1861;50.240;8.596;2022-10-23T11:21:08;16.00;99.90
3690;DHT22;1861;50.240;8.596;2022-10-23T11:23:48;16.00;99.90
3690;DHT22;1861;50.240;8.596;2022-10-23T11:26:29;16.00;99.90
3690;DHT22;1861;50.240;8.596;2022-10-23T11:29:20;16.00;99.90
3690;DHT22;1861;50.240;8.596;2022-10-23T11:32:01;16.00;99.90
3690;DHT22;1861;50.240;8.596;2022-10-23T11:34:50;16.00;99.90
3690;DHT22;1861;50.240;8.596;2022-10-23T11:37:22;16.00;99.90
3690;DHT22;1861;50.240;8.596;2022-10-23T11:40:17;16.10;99.90
3690;DHT22;1861;50.240;8.596;2022-10-23T11:42:48;16.10;99.90
3690;DHT22;1861;50.240;8.596;2022-10-23T11:45:41;16.00;99.90
3690;DHT22;1861;50.240;8.596;2022-10-23T11:48:21;16.10;99.90
3690;DHT22;1861;50.240;8.596;2022-10-23T11:50:51;16.10;99.90
3690;DHT22;1861;50.240;8.596;2022-10-23T11:53:26;16.10;99.90
3690;DHT22;1861;50.240;8.596;2022-10-23T11:56:03;16.10;99.90
3690;DHT22;1861;50.240;8.596;2022-10-23T11:58:43;16.10;99.90
3690;DHT22;1861;50.240;8.596;2022-10-23T12:01:30;16.10;99.90
3690;DHT22;1861;50.240;8.596;2022-10-23T12:04:03;16.10;99.90
3690;DHT22;1861;50.240;8.596;2022-10-23T12:06:38;16.10;99.90
3690;DHT22;1861;50.240;8.596;2022-10-23T12:09:21;16.10;99.90
3690;DHT22;1861;50.240;8.596;2022-10-23T12:12:11;16.10;99.90
3690;DHT22;1861;50.240;8.596;2022-10-23T12:14:44;16.10;99.90
3690;DHT22;1861;50.240;8.596;2022-10-23T12:17:33;16.10;99.90
3690;DHT22;1861;50.240;8.596;2022-10-23T12:20:18;16.10;99.90
3690;DHT22;1861;50.240;8.596;2022-10-23T12:22:59;16.20;99.90
3690;DHT22;1861;50.240;8.596;2022-10-23T12:25:36;16.20;99.90
3690;DHT22;1861;50.240;8.596;2022-10-23T12:28:17;16.20;99.90
3690;DHT22;1861;50.240;8.596;2022-10-23T12:30:55;16.30;99.90
3690;DHT22;1861;50.240;8.596;2022-10-23T12:33:30;16.30;99.90
3690;DHT22;1861;50.240;8.596;2022-10-23T12:36:23;16.30;99.90
3690;DHT22;1861;50.240;8.596;2022-10-23T12:38:53;16.30;99.90
3690;DHT22;1861;50.240;8.596;2022-10-23T12:41:26;16.40;99.90
3690;DHT22;1861;50.240;8.596;2022-10-23T12:43:58;16.40;99.90
3690;DHT22;1861;50.240;8.596;2022-10-23T12:46:32;16.40;99.90
3690;DHT22;1861;50.240;8.596;2022-10-23T12:49:10;16.40;99.90
3690;DHT22;1861;50.240;8.596;2022-10-23T12:51:39;16.40;99.90
3690;DHT22;1861;50.240;8.596;2022-10-23T12:54:14;16.40;99.90
3690;DHT22;1861;50.240;8.596;2022-10-23T12:56:42;16.40;99.90
3690;DHT22;1861;50.240;8.596;2022-10-23T12:59:16;16.40;99.90
3690;DHT22;1861;50.240;8.596;2022-10-23T13:01:45;16.40;99.90
3690;DHT22;1861;50.240;8.596;2022-10-23T13:04:25;16.40;99.90
3690;DHT22;1861;50.240;8.596;2022-10-23T13:06:55;16.50;99.90
3690;DHT22;1861;50.240;8.596;2022-10-23T13:09:28;16.50;99.90
3690;DHT22;1861;50.240;8.596;2022-10-23T13:12:17;16.50;99.90
3690;DHT22;1861;50.240;8.596;2022-10-23T13:14:57;16.50;99.90
3690;DHT22;1861;50.240;8.596;2022-10-23T13:17:34;16.50;99.90
3690;DHT22;1861;50.240;8.596;2022-10-23T13:20:23;16.50;99.90
3690;DHT22;1861;50.240;8.596;2022-10-23T13:22:57;16.50;99.90
3690;DHT22;1861;50.240;8.596;2022-10-23T13:25:28;16.50;99.90
3690;DHT22;1861;50.240;8.596;2022-10-23T13:28:14;16.50;99.90
3690;DHT22;1861;50.240;8.596;2022-10-23T13:30:57;16.50;99.90
3690;DHT22;1861;50.240;8.596;2022-10-23T13:33:31;16.50;99.90
3690;DHT22;1861;50.240;8.596;2022-10-23T13:36:01;16.50;99.90
3690;DHT22;1861;50.240;8.596;2022-10-23T13:38:31;16.60;99.90
3690;DHT22;1861;50.240;8.596;2022-10-23T13:41:01;16.50;99.90
3690;DHT22;1861;50.240;8.596;2022-10-23T13:43:30;16.50;99.90
3690;DHT22;1861;50.240;8.596;2022-10-23T13:46:00;16.50;99.90
3690;DHT22;1861;50.240;8.596;2022-10-23T13:48:30;16.60;99.90
3690;DHT22;1861;50.240;8.596;2022-10-23T13:51:05;16.60;99.90
3690;DHT22;1861;50.240;8.596;2022-10-23T13:53:37;16.50;99.90
3690;DHT22;1861;50.240;8.596;2022-10-23T13:56:05;16.60;99.90
3690;DHT22;1861;50.240;8.596;2022-10-23T13:58:34;16.50;99.90
3690;DHT22;1861;50.240;8.596;2022-10-23T14:01:03;16.60;99.90
3690;DHT22;1861;50.240;8.596;2022-10-23T14:03:32;16.60;99.90
3690;DHT22;1861;50.240;8.596;2022-10-23T14:06:01;16.50;99.90
3690;DHT22;1861;50.240;8.596;2022-10-23T14:08:29;16.60;99.90
3690;DHT22;1861;50.240;8.596;2022-10-23T14:10:57;16.60;99.90
3690;DHT22;1861;50.240;8.596;2022-10-23T14:13:25;16.60;99.90
3690;DHT22;1861;50.240;8.596;2022-10-23T14:15:53;16.60;99.90
3690;DHT22;1861;50.240;8.596;2022-10-23T14:18:22;16.60;99.90
3690;DHT22;1861;50.240;8.596;2022-10-23T14:20:51;16.60;99.90
3690;DHT22;1861;50.240;8.596;2022-10-23T14:23:19;16.60;99.90
3690;DHT22;1861;50.240;8.596;2022-10-23T14:25:47;16.50;99.90
3690;DHT22;1861;50.240;8.596;2022-10-23T14:28:15;16.60;99.90
3690;DHT22;1861;50.240;8.596;2022-10-23T14:30:43;16.50;99.90
3690;DHT22;1861;50.240;8.596;2022-10-23T14:33:11;16.60;99.90
3690;DHT22;1861;50.240;8.596;2022-10-23T14:35:42;16.60;99.90
3690;DHT22;1861;50.240;8.596;2022-10-23T14:38:10;16.60;99.90
3690;DHT22;1861;50.240;8.596;2022-10-23T14:40:38;16.50;99.90
3690;DHT22;1861;50.240;8.596;2022-10-23T14:43:06;16.50;99.90
3690;DHT22;1861;50.240;8.596;2022-10-23T14:45:34;16.50;99.90
3690;DHT22;1861;50.240;8.596;2022-10-23T14:48:03;16.60;99.90
3690;DHT22;1861;50.240;8.596;2022-10-23T14:50:33;16.60;99.90
3690;DHT22;1861;50.240;8.596;2022-10-23T14:53:03;16.50;99.90
3690;DHT22;1861;50.240;8.596;2022-10-23T14:55:31;16.50;99.90
3690;DHT22;1861;50.240;8.596;2022-10-23T14:57:59;16.50;99.90
3690;DHT22;1861;50.240;8.596;2022-10-23T15:00:27;16.50;99.90
3690;DHT22;1861;50.240;8.596;2022-10-23T15:02:55;16.50;99.90
3690;DHT22;1861;50.240;8.596;2022-10-23T15:05:23;16.50;99.90
3690;DHT22;1861;50.240;8.596;2022-10-23T15:07:51;16.60;99.90
3690;DHT22;1861;50.240;8.596;2022-10-23T15:10:20;16.50;99.90
3690;DHT22;1861;50.240;8.596;2022-10-23T15:12:48;16.50;99.90
3690;DHT22;1861;50.240;8.596;2022-10-23T15:15:16;16.50;99.90
3690;DHT22;1861;50.240;8.596;2022-10-23T15:17:44;16.50;99.90
3690;DHT22;1861;50.240;8.596;2022-10-23T15:20:12;16.50;99.90
3690;DHT22;1861;50.240;8.596;2022-10-23T15:22:40;16.60;99.90
3690;DHT22;1861;50.240;8.596;2022-10-23T15:25:09;16.50;99.90
3690;DHT22;1861;50.240;8.596;2022-10-23T15:27:44;16.60;99.90
3690;DHT22;1861;50.240;8.596;2022-10-23T15:30:14;16.50;99.90
3690;DHT22;1861;50.240;8.596;2022-10-23T15:32:42;16.50;99.90
3690;DHT22;1861;50.240;8.596;2022-10-23T15:35:11;16.60;99.90
3690;DHT22;1861;50.240;8.596;2022-10-23T15:37:39;16.60;99.90
3690;DHT22;1861;50.240;8.596;2022-10-23T15:40:08;16.60;99.90
3690;DHT22;1861;50.240;8.596;2022-10-23T15:42:36;16.50;99.90
3690;DHT22;1861;50.240;8.596;2022-10-23T15:45:07;16.50;99.90
3690;DHT22;1861;50.240;8.596;2022-10-23T15:47:35;16.60;99.90
3690;DHT22;1861;50.240;8.596;2022-10-23T15:50:04;16.50;99.90
3690;DHT22;1861;50.240;8.596;2022-10-23T15:52:32;16.50;99.90
3690;DHT22;1861;50.240;8.596;2022-10-23T15:55:00;16.50;99.90
3690;DHT22;1861;50.240;8.596;2022-10-23T15:57:28;16.50;99.90
3690;DHT22;1861;50.240;8.596;2022-10-23T15:59:57;16.50;99.90
3690;DHT22;1861;50.240;8.596;2022-10-23T16:02:26;16.40;99.90
3690;DHT22;1861;50.240;8.596;2022-10-23T16:04:54;16.50;99.90
3690;DHT22;1861;50.240;8.596;2022-10-23T16:07:22;16.40;99.90
3690;DHT22;1861;50.240;8.596;2022-10-23T16:09:50;16.40;99.90
3690;DHT22;1861;50.240;8.596;2022-10-23T16:12:18;16.40;99.90
3690;DHT22;1861;50.240;8.596;2022-10-23T16:14:46;16.40;99.90
3690;DHT22;1861;50.240;8.596;2022-10-23T16:17:14;16.40;99.90
3690;DHT22;1861;50.240;8.596;2022-10-23T16:19:45;16.40;99.90
3690;DHT22;1861;50.240;8.596;2022-10-23T16:22:13;16.30;99.90
3690;DHT22;1861;50.240;8.596;2022-10-23T16:24:43;16.30;99.90
3690;DHT22;1861;50.240;8.596;2022-10-23T16:27:11;16.30;99.90
3690;DHT22;1861;50.240;8.596;2022-10-23T16:29:39;16.30;99.90
3690;DHT22;1861;50.240;8.596;2022-10-23T16:32:07;16.30;99.90
3690;DHT22;1861;50.240;8.596;2022-10-23T16:34:35;16.30;99.90
3690;DHT22;1861;50.240;8.596;2022-10-23T16:37:04;16.30;99.90
3690;DHT22;1861;50.240;8.596;2022-10-23T16:39:49;16.30;99.90
3690;DHT22;1861;50.240;8.596;2022-10-23T16:42:36;16.30;99.90
3690;DHT22;1861;50.240;8.596;2022-10-23T16:45:10;16.30;99.90
3690;DHT22;1861;50.240;8.596;2022-10-23T16:47:38;16.30;99.90